»·PEaware :: N664TL KSNA-KSFO

N664TL :: KSNA-KSFO

FLIGHT INFORMATION

Flight Status: Arrived
Operator: Privately registered:
United States
More flights under this callsign
Pilot: Anonymous 328 (328)
Aircraft: Unknown
(G500)
More flights by this aircraft type
Origin: KSNA John Wayne-Orange Co
United States
Destination: KSFO San Francisco Intl
United States
More flights between these airports :: More routes between these airports
Route: +MIKAA1 HHERO TYTON SPERR PEEBR SERFR SERFR3
File this flight plan on PilotEdge
Remarks:
Altitude:
(Current/Filed)
43,000ft
Speed:
(Current/Filed)
0kts
Departed: 04-Oct-18 02:46 PM
Arrived: 04-Oct-18 04:18 PM
Distance/Time
Traveled:
323nm/1:32
Distance/Time
To Go:
Arrived

Flight Plot

Page will automatically refresh every two minutes.

Flight plan parsing failed; only flown route is shown


Map Options




Map Legend


Flown Route
Filed Route
Departure Airport
Arrival Airport
Navaid (VOR, NDB)
Fix

Horizontal Profiles

Position Reports

Time Latitude Longitude Heading Altitude Ground
Speed
04-Oct-18 14:33 33.677742 -117.869034 209 53ft 0kts
04-Oct-18 14:34 33.677742 -117.869034 209 53ft 0kts
04-Oct-18 14:35 33.677742 -117.869034 209 53ft 0kts
04-Oct-18 14:36 33.677742 -117.869034 209 53ft 0kts
04-Oct-18 14:37 33.677742 -117.869034 209 53ft 0kts
04-Oct-18 14:38 33.677742 -117.869034 209 53ft 0kts
04-Oct-18 14:39 33.677742 -117.869034 209 53ft 0kts
04-Oct-18 14:40 33.677742 -117.869034 209 53ft 0kts
04-Oct-18 14:41 33.677742 -117.869034 209 53ft 0kts
04-Oct-18 14:42 33.677742 -117.869034 209 53ft 0kts
04-Oct-18 14:43 33.677742 -117.869034 209 53ft 0kts
04-Oct-18 14:44 33.677742 -117.869034 209 53ft 0kts
04-Oct-18 14:45 33.675716 -117.870346 207 55ft 23kts
04-Oct-18 14:46 33.668861 -117.874687 206 60ft 20kts
04-Oct-18 14:47 33.668053 -117.873634 34 61ft 10kts
04-Oct-18 14:48 33.684650 -117.862991 30 388ft 197kts
04-Oct-18 14:49 33.734833 -117.826340 60 4039ft 220kts
04-Oct-18 14:50 33.747147 -117.754990 121 7130ft 229kts
04-Oct-18 14:51 33.692074 -117.716331 190 11662ft 247kts
04-Oct-18 14:52 33.633797 -117.758606 234 13016ft 266kts
04-Oct-18 14:53 33.588581 -117.830681 233 13024ft 271kts
04-Oct-18 14:54 33.543308 -117.902596 233 13026ft 271kts
04-Oct-18 14:55 33.497803 -117.974747 233 13028ft 271kts
04-Oct-18 14:56 33.456963 -118.050217 239 13027ft 271kts
04-Oct-18 14:57 33.418762 -118.128014 241 13028ft 271kts
04-Oct-18 14:58 33.423008 -118.215324 283 13023ft 271kts
04-Oct-18 14:59 33.441307 -118.302383 292 12947ft 270kts
04-Oct-18 15:00 33.475521 -118.382614 297 12939ft 270kts
04-Oct-18 15:01 33.510349 -118.462570 297 12940ft 270kts
04-Oct-18 15:02 33.558468 -118.530746 315 12943ft 270kts
04-Oct-18 15:03 33.612629 -118.593552 315 12939ft 270kts
04-Oct-18 15:04 33.666763 -118.656418 315 12941ft 270kts
04-Oct-18 15:05 33.720684 -118.719147 315 12939ft 270kts
04-Oct-18 15:06 33.774761 -118.782150 315 12984ft 270kts
04-Oct-18 15:07 33.829807 -118.846420 315 13939ft 294kts
04-Oct-18 15:08 33.889996 -118.916779 315 16824ft 291kts
04-Oct-18 15:09 33.948635 -118.985481 315 19710ft 300kts
04-Oct-18 15:10 34.010117 -119.057747 315 22270ft 322kts
04-Oct-18 15:11 34.075222 -119.134392 315 22994ft 324kts
04-Oct-18 15:12 34.140366 -119.211182 315 22997ft 331kts
04-Oct-18 15:13 34.206188 -119.289055 315 22995ft 331kts
04-Oct-18 15:14 34.271610 -119.366600 315 22996ft 329kts
04-Oct-18 15:15 34.336811 -119.444199 313 22997ft 327kts
04-Oct-18 15:16 34.399578 -119.522919 322 22955ft 326kts
04-Oct-18 15:17 34.464825 -119.598518 314 22994ft 324kts
04-Oct-18 15:18 34.528290 -119.676559 314 22995ft 325kts
04-Oct-18 15:19 34.591484 -119.754494 314 22995ft 325kts
04-Oct-18 15:20 34.654800 -119.832779 314 22996ft 325kts
04-Oct-18 15:21 34.718098 -119.911201 314 22996ft 325kts
04-Oct-18 15:22 34.781143 -119.989502 314 22999ft 325kts
04-Oct-18 15:23 34.833996 -120.077003 290 22999ft 325kts
04-Oct-18 15:24 34.861565 -120.181664 287 22999ft 325kts
04-Oct-18 15:25 34.889286 -120.285866 287 23000ft 325kts
04-Oct-18 15:26 34.917046 -120.390472 287 23002ft 325kts
04-Oct-18 15:27 34.944721 -120.495209 287 23003ft 325kts
04-Oct-18 15:36 35.447094 -121.199829 347 23004ft 318kts
04-Oct-18 15:37 35.532829 -121.222679 347 22999ft 316kts
04-Oct-18 15:38 35.619221 -121.245361 347 23004ft 316kts
04-Oct-18 15:39 35.705353 -121.268135 347 23002ft 316kts
04-Oct-18 15:40 35.791512 -121.290955 347 23002ft 316kts
04-Oct-18 15:41 35.877781 -121.313858 347 23000ft 316kts
04-Oct-18 15:42 35.964081 -121.336823 347 23005ft 316kts
04-Oct-18 15:43 36.050102 -121.359909 345 23000ft 316kts
04-Oct-18 15:44 36.127533 -121.410851 327 23003ft 316kts
04-Oct-18 15:45 36.202168 -121.469032 327 23001ft 316kts
04-Oct-18 15:46 36.276474 -121.527161 327 23002ft 316kts
04-Oct-18 15:47 36.351002 -121.585602 327 23001ft 316kts
04-Oct-18 15:48 36.425316 -121.644020 327 23001ft 315kts
04-Oct-18 15:49 36.499191 -121.702225 327 23008ft 315kts
04-Oct-18 15:50 36.574219 -121.760872 328 22076ft 320kts
04-Oct-18 15:51 36.650307 -121.821281 326 20635ft 327kts
04-Oct-18 15:52 36.734753 -121.887733 333 18791ft 400kts
04-Oct-18 15:53 36.841587 -121.922066 347 16641ft 384kts
04-Oct-18 15:54 36.926285 -121.945732 347 14983ft 369kts
04-Oct-18 15:55 37.022736 -121.980698 342 13059ft 349kts
04-Oct-18 15:56 37.123848 -122.020081 342 11022ft 290kts
04-Oct-18 15:57 37.199604 -122.049751 342 9521ft 285kts
04-Oct-18 15:58 37.261524 -122.074028 342 8278ft 270kts
04-Oct-18 15:59 37.331638 -122.101624 342 6872ft 257kts
04-Oct-18 16:00 37.398163 -122.127045 345 6024ft 259kts
04-Oct-18 16:01 37.464794 -122.149078 345 5609ft 224kts
04-Oct-18 16:02 37.518555 -122.166931 345 4264ft 178kts
04-Oct-18 16:03 37.549160 -122.201927 296 2778ft 134kts
04-Oct-18 16:04 37.565742 -122.242386 298 2059ft 133kts
04-Oct-18 16:05 37.582874 -122.283516 298 1364ft 112kts
04-Oct-18 16:06 37.600388 -122.324043 298 3652ft 156kts
04-Oct-18 16:07 37.619633 -122.376968 293 3654ft 188kts
04-Oct-18 16:08 37.639816 -122.445007 266 4001ft 212kts
04-Oct-18 16:09 37.594246 -122.463181 153 4013ft 216kts
04-Oct-18 16:10 37.540504 -122.428192 153 4005ft 213kts
04-Oct-18 16:11 37.501900 -122.375771 113 4010ft 222kts
04-Oct-18 16:12 37.478020 -122.303825 113 4007ft 223kts
04-Oct-18 16:13 37.455631 -122.236320 113 3649ft 188kts
04-Oct-18 16:14 37.474297 -122.191795 23 3029ft 185kts
04-Oct-18 16:15 37.522934 -122.179260 327 3049ft 178kts
04-Oct-18 16:16 37.558384 -122.223709 299 2387ft 182kts
04-Oct-18 16:17 37.578876 -122.273979 300 1504ft 136kts
04-Oct-18 16:18 37.596092 -122.314903 299 809ft 137kts
04-Oct-18 16:19 37.613548 -122.356979 298 67ft 128kts
04-Oct-18 16:20 37.617447 -122.366333 297 18ft 11kts
04-Oct-18 16:21 37.618870 -122.369675 299 17ft 11kts
04-Oct-18 16:22 37.621120 -122.369255 26 17ft 14kts
04-Oct-18 16:23 37.622150 -122.368584 28 17ft 0kts
04-Oct-18 16:24 37.622150 -122.368584 28 17ft 0kts
04-Oct-18 16:25 37.622150 -122.368584 28 17ft 0kts
04-Oct-18 16:26 37.622150 -122.368584 28 17ft 0kts
04-Oct-18 16:27 37.622150 -122.368584 28 17ft 0kts
04-Oct-18 16:28 37.622150 -122.368584 28 17ft 0kts
04-Oct-18 16:29 37.622150 -122.368584 28 17ft 0kts

Navigation Log

Ident Type
Flight plan parsing failed, navigation log unavailable